Time;durP1;ratioP1;P1;durP2;ratioP2;P2;SDS_P1;SDS_P2;PMS_P1;PMS_P2;Temp;Humidity;BMP_temperature;BMP_pressure;BME280_temperature;BME280_humidity;BME280_pressure;Samples;Min_cycle;Max_cycle;Signal;HPM_P1;HPM_P2
2022/08/31 00:04:21;;;;;;;7.18;1.80;;;;;;;37.60;23.20;100467.97;4967296;28;20058;-71
2022/08/31 00:06:51;;;;;;;10.80;1.73;;;;;;;37.58;24.01;100469.13;4969002;28;20069;-71
2022/08/31 00:09:20;;;;;;;3.90;1.90;;;;;;;37.55;22.67;100466.69;4966903;28;20076;-72
2022/08/31 00:11:48;;;;;;;8.73;2.03;;;;;;;37.51;22.43;100471.47;4965739;28;20646;-71
2022/08/31 00:14:17;;;;;;;6.15;2.00;;;;;;;37.46;24.19;100477.28;4967204;28;20109;-71
2022/08/31 00:16:48;;;;;;;7.20;1.73;;;;;;;37.41;23.22;100473.25;4967236;28;20054;-72
2022/08/31 00:19:17;;;;;;;5.22;1.90;;;;;;;37.38;22.23;100478.94;4963932;28;20164;-73
2022/08/31 00:21:45;;;;;;;7.82;2.75;;;;;;;37.26;22.33;100470.06;4966620;28;20453;-72
2022/08/31 00:24:14;;;;;;;5.18;1.90;;;;;;;37.27;21.90;100472.66;4964875;28;20046;-72
2022/08/31 00:26:43;;;;;;;8.25;1.80;;;;;;;37.25;22.51;100480.03;4966149;28;20074;-74
2022/08/31 00:29:12;;;;;;;10.40;2.10;;;;;;;37.23;22.39;100476.59;4975300;28;20065;-71
2022/08/31 00:31:41;;;;;;;7.47;2.13;;;;;;;37.21;22.23;100475.03;4965301;28;20394;-72
2022/08/31 00:34:11;;;;;;;10.02;1.80;;;;;;;37.22;23.43;100479.41;4966353;28;20059;-72
2022/08/31 00:36:40;;;;;;;7.43;2.23;;;;;;;37.19;22.74;100479.69;4970927;28;20054;-71
2022/08/31 00:39:09;;;;;;;9.68;2.00;;;;;;;37.09;22.09;100477.81;4959965;28;20293;-71
2022/08/31 00:41:39;;;;;;;6.63;1.90;;;;;;;36.96;22.32;100479.81;4968152;28;20641;-71
2022/08/31 00:44:10;;;;;;;7.77;1.70;;;;;;;36.95;22.77;100477.25;4967868;28;20452;-71
2022/08/31 00:46:41;;;;;;;8.27;2.15;;;;;;;36.87;22.27;100481.44;4963216;28;20292;-73
2022/08/31 00:49:14;;;;;;;12.05;2.35;;;;;;;36.79;22.25;100481.28;4964649;28;20055;-75
2022/08/31 00:51:48;;;;;;;8.65;1.70;;;;;;;36.77;22.76;100483.25;4967974;28;20050;-73
2022/08/31 00:54:19;;;;;;;5.05;1.85;;;;;;;36.76;22.46;100481.50;4968955;28;20097;-75
2022/08/31 00:56:47;;;;;;;;;;;;;;;36.72;22.54;100490.00;4970470;28;20059;-74
2022/08/31 00:59:17;;;;;;;7.28;2.05;;;;;;;36.65;22.29;100492.34;4964024;28;20467;-73
2022/08/31 01:01:46;;;;;;;14.52;2.40;;;;;;;36.57;22.15;100484.91;4966236;28;20560;-72
2022/08/31 01:04:16;;;;;;;9.55;1.98;;;;;;;36.51;22.12;100487.25;4965409;28;20050;-71
2022/08/31 01:06:46;;;;;;;8.10;2.03;;;;;;;36.43;22.27;100479.81;4967063;28;20529;-73
2022/08/31 01:09:15;;;;;;;10.85;2.15;;;;;;;36.40;22.39;100486.31;4964757;28;20547;-70
2022/08/31 01:11:44;;;;;;;9.77;1.52;;;;;;;36.35;22.53;100485.81;4962684;28;20047;-71
2022/08/31 01:14:13;;;;;;;8.73;1.80;;;;;;;36.28;23.55;100484.63;4961192;28;20061;-71
2022/08/31 01:16:45;;;;;;;5.53;3.17;;;;;;;36.21;25.37;100483.44;4967485;28;20093;-71
2022/08/31 01:19:25;;;;;;;8.23;3.13;;;;;;;36.17;25.66;100484.66;4963254;28;20046;-71
2022/08/31 01:22:00;;;;;;;9.38;3.28;;;;;;;36.13;25.39;100485.94;4965085;28;20043;-73
2022/08/31 01:24:33;;;;;;;9.73;2.03;;;;;;;36.01;25.49;100479.66;4968160;28;20061;-73
2022/08/31 01:27:06;;;;;;;4.25;2.03;;;;;;;35.96;25.85;100487.25;4967966;28;20053;-73
2022/08/31 01:29:36;;;;;;;6.32;2.13;;;;;;;35.90;25.64;100483.25;4964262;28;20471;-71
2022/08/31 01:32:06;;;;;;;3.50;1.83;;;;;;;35.86;25.09;100487.16;4964441;28;20046;-73
2022/08/31 01:34:35;;;;;;;10.05;2.78;;;;;;;35.75;25.21;100476.41;4965376;28;20046;-75
2022/08/31 01:37:04;;;;;;;10.82;2.67;;;;;;;35.74;24.91;100488.16;4966407;28;20053;-74
2022/08/31 01:39:34;;;;;;;6.20;1.90;;;;;;;35.62;24.98;100481.91;4967944;28;20056;-73
2022/08/31 01:42:03;;;;;;;7.75;1.75;;;;;;;35.61;25.31;100499.00;4970462;28;20057;-72
2022/08/31 01:44:31;;;;;;;8.10;1.90;;;;;;;35.53;24.15;100488.88;4968648;28;20049;-76
2022/08/31 01:47:00;;;;;;;7.28;1.98;;;;;;;35.50;24.27;100499.88;4966052;28;20066;-73
2022/08/31 01:49:29;;;;;;;6.70;2.17;;;;;;;35.43;24.48;100499.50;4963745;28;20050;-74
2022/08/31 01:51:58;;;;;;;7.80;2.80;;;;;;;35.32;24.89;100501.31;4968181;28;20445;-72
2022/08/31 01:54:26;;;;;;;11.10;3.40;;;;;;;35.26;25.45;100502.66;4960443;28;20049;-73
2022/08/31 01:56:57;;;;;;;6.15;3.53;;;;;;;35.12;27.10;100503.75;4964113;28;20497;-73
2022/08/31 01:59:25;;;;;;;4.53;2.50;;;;;;;35.00;27.90;100502.84;4966343;28;20101;-71
2022/08/31 02:01:56;;;;;;;4.85;2.35;;;;;;;34.93;28.68;100500.72;4967746;28;20057;-71
2022/08/31 02:04:27;;;;;;;10.32;4.10;;;;;;;34.81;28.62;100498.00;4964674;28;20047;-71
2022/08/31 02:06:59;;;;;;;19.90;11.52;;;;;;;34.70;28.89;100499.78;4969626;28;20525;-72
2022/08/31 02:09:29;;;;;;;15.48;12.13;;;;;;;34.58;29.36;100496.19;4968775;28;20452;-72
2022/08/31 02:12:00;;;;;;;17.52;11.25;;;;;;;34.48;29.13;100495.19;4971039;28;21716;-71
2022/08/31 02:14:28;;;;;;;14.93;10.38;;;;;;;34.32;29.21;100496.31;4969341;28;20046;-73
2022/08/31 02:16:57;;;;;;;13.63;6.57;;;;;;;34.20;29.72;100494.50;4969121;28;20065;-74
2022/08/31 02:19:26;;;;;;;9.23;4.22;;;;;;;34.12;30.01;100507.66;4962636;28;20050;-73
2022/08/31 02:21:54;;;;;;;11.63;3.42;;;;;;;34.00;30.50;100506.72;4972584;28;20612;-74
2022/08/31 02:24:23;;;;;;;9.88;3.10;;;;;;;33.85;29.49;100514.03;4974508;28;21270;-71
2022/08/31 02:26:51;;;;;;;8.07;2.85;;;;;;;33.67;29.84;100509.97;4973604;28;20051;-72
2022/08/31 02:29:22;;;;;;;6.97;2.38;;;;;;;33.46;30.07;100515.88;4973506;28;20047;-73
2022/08/31 02:31:50;;;;;;;5.40;1.77;;;;;;;33.23;30.41;100516.63;4976031;28;20777;-72
2022/08/31 02:34:19;;;;;;;6.68;2.47;;;;;;;33.06;30.29;100515.97;4964933;28;20057;-72
2022/08/31 02:36:48;;;;;;;8.10;2.42;;;;;;;32.92;30.51;100514.22;4963142;28;20276;-73
2022/08/31 02:39:17;;;;;;;5.95;2.10;;;;;;;32.80;32.81;100514.16;4972607;28;20613;-74
2022/08/31 02:41:46;;;;;;;6.47;2.28;;;;;;;32.67;31.39;100520.38;4967388;28;20547;-75
2022/08/31 02:44:14;;;;;;;8.10;2.42;;;;;;;32.57;32.26;100518.38;4971332;28;20516;-74
2022/08/31 02:46:45;;;;;;;5.00;2.10;;;;;;;32.45;32.97;100520.03;4974249;28;20629;-73
2022/08/31 02:49:13;;;;;;;13.73;3.15;;;;;;;32.34;35.95;100521.63;4965994;28;20114;-73
2022/08/31 02:51:43;;;;;;;6.65;2.22;;;;;;;32.22;35.16;100530.41;4975843;28;20086;-74
2022/08/31 02:54:11;;;;;;;3.47;1.95;;;;;;;32.11;33.67;100527.56;4977503;28;20121;-74
2022/08/31 02:56:40;;;;;;;9.65;2.08;;;;;;;31.97;34.80;100523.09;4966370;28;20455;-74
2022/08/31 02:59:10;;;;;;;6.63;1.70;;;;;;;31.67;33.08;100529.41;4977883;28;20055;-74
2022/08/31 03:01:38;;;;;;;3.08;1.65;;;;;;;31.36;33.96;100530.44;4962296;28;20055;-73
2022/08/31 03:04:09;;;;;;;6.65;1.80;;;;;;;31.17;33.99;100536.00;4977424;28;20117;-73
2022/08/31 03:06:37;;;;;;;5.72;1.90;;;;;;;31.11;35.52;100536.41;4969216;28;20463;-73
2022/08/31 03:09:06;;;;;;;6.07;2.08;;;;;;;31.01;36.78;100538.72;4965281;28;20043;-74
2022/08/31 03:11:35;;;;;;;5.85;1.90;;;;;;;30.92;35.55;100544.63;4968893;28;20480;-73
2022/08/31 03:14:03;;;;;;;4.75;1.90;;;;;;;30.82;34.60;100548.75;4964785;28;20072;-74
2022/08/31 03:16:32;;;;;;;4.72;1.80;;;;;;;30.74;34.53;100553.69;4975719;28;20062;-74
2022/08/31 03:19:01;;;;;;;4.82;1.88;;;;;;;30.65;35.01;100555.94;4969710;28;20584;-74
2022/08/31 03:21:31;;;;;;;6.00;1.90;;;;;;;30.57;34.64;100547.50;4969296;28;20086;-74
2022/08/31 03:24:00;;;;;;;6.43;1.83;;;;;;;30.50;34.92;100555.97;4967316;28;20046;-73
2022/08/31 03:26:28;;;;;;;3.50;1.60;;;;;;;30.40;35.00;100556.50;4968295;28;20043;-75
2022/08/31 03:28:57;;;;;;;6.18;1.80;;;;;;;30.29;35.96;100564.25;4979009;28;20084;-76
2022/08/31 03:31:27;;;;;;;8.50;1.77;;;;;;;30.17;37.54;100563.09;4957575;28;20055;-76
2022/08/31 03:33:56;;;;;;;6.50;1.88;;;;;;;30.01;36.99;100560.41;4968070;28;20054;-75
2022/08/31 03:36:25;;;;;;;3.72;1.35;;;;;;;29.94;35.88;100572.34;4961691;28;20768;-74
2022/08/31 03:38:55;;;;;;;8.02;2.03;;;;;;;29.80;36.03;100583.75;4964164;28;20469;-73
2022/08/31 03:41:26;;;;;;;4.97;1.90;;;;;;;29.67;37.90;100580.00;4964324;28;20131;-72
2022/08/31 03:43:55;;;;;;;2.55;1.70;;;;;;;29.60;38.80;100590.13;4966334;28;20038;-73
2022/08/31 03:46:24;;;;;;;5.30;1.90;;;;;;;29.52;37.43;100591.44;4966029;28;20051;-72
2022/08/31 03:48:53;;;;;;;2.30;1.55;;;;;;;29.44;38.03;100592.72;4967178;28;20120;-71
2022/08/31 03:51:22;;;;;;;2.67;1.77;;;;;;;29.37;40.93;100596.66;4968940;28;20053;-72
2022/08/31 03:53:50;;;;;;;2.83;1.70;;;;;;;29.29;39.13;100597.97;4968018;28;20684;-71
2022/08/31 03:56:21;;;;;;;2.30;1.40;;;;;;;29.19;38.06;100594.91;4969479;28;20051;-71
2022/08/31 03:58:50;;;;;;;6.63;1.90;;;;;;;29.10;37.88;100601.56;4972532;28;20050;-72
2022/08/31 04:01:18;;;;;;;4.03;1.65;;;;;;;29.00;38.75;100603.81;4977319;28;20559;-72
2022/08/31 04:03:46;;;;;;;6.03;2.38;;;;;;;28.93;39.58;100607.72;4980862;28;20050;-72
2022/08/31 04:06:15;;;;;;;2.83;1.73;;;;;;;28.85;38.81;100612.53;4979676;28;20441;-73
2022/08/31 04:08:44;;;;;;;5.47;2.00;;;;;;;28.74;39.43;100607.72;4979183;28;20078;-71
2022/08/31 04:11:14;;;;;;;4.95;1.65;;;;;;;28.64;40.31;100606.47;4975627;28;20047;-71
2022/08/31 04:13:44;;;;;;;2.67;1.50;;;;;;;28.58;40.13;100614.75;4974974;28;20059;-72
2022/08/31 04:16:15;;;;;;;2.35;1.60;;;;;;;28.45;40.42;100617.09;4971460;28;20500;-72
2022/08/31 04:18:45;;;;;;;4.80;1.70;;;;;;;28.37;43.03;100629.91;4968271;28;20054;-72
2022/08/31 04:21:15;;;;;;;4.30;1.38;;;;;;;28.26;42.99;100642.81;4967337;28;20062;-72
2022/08/31 04:23:44;;;;;;;6.78;2.53;;;;;;;28.18;42.83;100636.06;4966795;28;20050;-72
2022/08/31 04:26:21;;;;;;;8.30;1.80;;;;;;;28.08;41.11;100626.75;4974350;28;20054;-72
2022/08/31 04:28:52;;;;;;;4.15;1.50;;;;;;;28.00;41.31;100631.59;4970231;28;20050;-73
2022/08/31 04:31:23;;;;;;;5.40;1.55;;;;;;;27.92;41.56;100629.28;4966563;28;20978;-73
2022/08/31 04:33:51;;;;;;;3.58;1.77;;;;;;;27.84;41.61;100638.53;4969113;28;20081;-72
2022/08/31 04:36:23;;;;;;;5.82;2.10;;;;;;;27.76;42.05;100633.50;4969489;28;20047;-72
2022/08/31 04:38:52;;;;;;;4.55;1.67;;;;;;;27.70;43.13;100634.63;4973133;28;20046;-74
2022/08/31 04:41:23;;;;;;;5.78;1.80;;;;;;;27.67;42.85;100642.75;4963416;28;20058;-72
2022/08/31 04:43:55;;;;;;;3.95;1.80;;;;;;;27.55;43.55;100630.84;4974143;28;20706;-72
2022/08/31 04:46:24;;;;;;;3.63;1.60;;;;;;;27.52;43.44;100638.94;4968258;28;20108;-73
2022/08/31 04:48:53;;;;;;;5.50;1.90;;;;;;;27.46;43.24;100633.03;4969095;28;21143;-73
2022/08/31 04:51:23;;;;;;;6.05;2.17;;;;;;;27.40;42.91;100630.63;4968549;28;20050;-72
2022/08/31 04:53:53;;;;;;;4.53;1.80;;;;;;;27.29;44.47;100636.41;4967290;28;20046;-73
2022/08/31 04:56:23;;;;;;;3.03;1.80;;;;;;;27.19;44.60;100640.34;4964850;28;20535;-73
2022/08/31 04:58:56;;;;;;;4.32;1.50;;;;;;;27.10;45.17;100638.94;4967299;28;20493;-72
2022/08/31 05:01:27;;;;;;;4.70;1.70;;;;;;;27.02;44.81;100641.03;4974285;28;20042;-73
2022/08/31 05:03:57;;;;;;;7.17;1.80;;;;;;;26.95;44.84;100640.41;4969652;28;20046;-73
2022/08/31 05:06:28;;;;;;;6.97;1.80;;;;;;;26.88;44.62;100646.91;4966876;28;20062;-71
2022/08/31 05:08:59;;;;;;;8.02;2.45;;;;;;;26.81;45.34;100645.44;4965428;28;20062;-72
2022/08/31 05:11:29;;;;;;;5.15;1.80;;;;;;;26.69;45.46;100644.97;4964313;28;20047;-72
2022/08/31 05:14:01;;;;;;;8.43;2.00;;;;;;;26.65;44.56;100655.78;4959409;28;20055;-72
2022/08/31 05:16:30;;;;;;;5.43;1.60;;;;;;;26.56;45.65;100648.19;4965097;28;20054;-73
2022/08/31 05:19:00;;;;;;;4.68;1.83;;;;;;;26.47;45.88;100652.88;4968952;28;20815;-74
2022/08/31 05:21:30;;;;;;;3.10;1.60;;;;;;;26.40;45.70;100659.34;4967426;28;20738;-73
2022/08/31 05:24:01;;;;;;;3.90;1.73;;;;;;;26.31;45.80;100665.84;4968717;28;20129;-71
2022/08/31 05:26:31;;;;;;;6.25;1.92;;;;;;;26.20;46.25;100660.06;4966340;28;20137;-71
2022/08/31 05:29:04;;;;;;;5.13;1.88;;;;;;;26.09;47.76;100660.50;4968295;28;20473;-72
2022/08/31 05:31:33;;;;;;;6.88;1.85;;;;;;;26.03;46.00;100671.31;4958382;28;20451;-73
2022/08/31 05:34:02;;;;;;;4.15;1.73;;;;;;;25.93;46.01;100669.91;4964049;28;20050;-71
2022/08/31 05:36:31;;;;;;;4.25;2.25;;;;;;;25.90;45.58;100670.00;4968944;28;20059;-72
2022/08/31 05:39:01;;;;;;;7.50;1.83;;;;;;;25.83;45.81;100665.81;4963040;28;20137;-72
2022/08/31 05:41:30;;;;;;;8.48;2.40;;;;;;;25.75;45.59;100668.75;4971058;28;20508;-70
2022/08/31 05:44:02;;;;;;;3.15;1.80;;;;;;;25.66;46.28;100661.97;4964052;28;20054;-72
2022/08/31 05:46:31;;;;;;;5.60;1.85;;;;;;;25.60;46.43;100667.47;4959112;28;20141;-71
2022/08/31 05:49:00;;;;;;;7.30;1.58;;;;;;;25.54;46.27;100673.00;4959500;28;20429;-72
2022/08/31 05:51:29;;;;;;;6.60;2.28;;;;;;;25.49;46.39;100669.63;4964023;28;20725;-72
2022/08/31 05:54:00;;;;;;;3.70;1.58;;;;;;;25.43;46.54;100669.84;4969236;28;20106;-71
2022/08/31 05:56:28;;;;;;;4.30;1.90;;;;;;;25.40;46.49;100676.09;4969180;28;20413;-71
2022/08/31 05:58:57;;;;;;;3.70;1.80;;;;;;;25.33;46.96;100669.25;4968762;28;20051;-71
2022/08/31 06:01:30;;;;;;;5.95;2.15;;;;;;;25.26;47.11;100668.59;4968009;28;20113;-71
2022/08/31 06:03:59;;;;;;;3.53;1.60;;;;;;;25.19;47.38;100668.84;4960369;28;20054;-73
2022/08/31 06:06:28;;;;;;;5.28;1.52;;;;;;;25.09;47.45;100662.97;4961600;28;20135;-72
2022/08/31 06:08:58;;;;;;;3.65;1.55;;;;;;;25.04;47.75;100673.72;4963349;28;20109;-71
2022/08/31 06:11:29;;;;;;;8.13;1.70;;;;;;;25.00;47.69;100676.50;4967185;28;20046;-72
2022/08/31 06:13:59;;;;;;;4.78;1.40;;;;;;;24.95;47.84;100674.00;4975895;28;20744;-72
2022/08/31 06:16:31;;;;;;;6.90;2.03;;;;;;;24.93;47.76;100674.97;4966947;28;20601;-71
2022/08/31 06:19:02;;;;;;;5.47;1.98;;;;;;;24.86;49.12;100679.59;4964773;28;20390;-71
2022/08/31 06:21:33;;;;;;;3.92;1.50;;;;;;;24.79;49.20;100670.97;4972693;28;20425;-72
2022/08/31 06:24:03;;;;;;;5.47;1.73;;;;;;;24.69;49.40;100672.13;4971045;28;20402;-71
2022/08/31 06:26:33;;;;;;;3.63;1.95;;;;;;;24.62;49.67;100681.19;4960386;28;20101;-72
2022/08/31 06:29:05;;;;;;;4.90;1.60;;;;;;;24.49;52.58;100691.28;4975157;28;20043;-70
2022/08/31 06:31:37;;;;;;;4.25;1.63;;;;;;;24.32;52.87;100693.50;4971814;28;20058;-71
2022/08/31 06:34:07;;;;;;;5.78;2.05;;;;;;;24.25;52.01;100704.22;4967591;28;20177;-71
2022/08/31 06:36:35;;;;;;;5.05;1.98;;;;;;;24.22;52.30;100690.25;4972665;28;20149;-72
2022/08/31 06:39:05;;;;;;;5.80;2.25;;;;;;;24.20;52.27;100700.00;4963574;28;20613;-71
2022/08/31 06:41:36;;;;;;;7.75;1.77;;;;;;;24.15;53.74;100696.63;4971219;28;20902;-70
2022/08/31 06:44:07;;;;;;;3.35;1.85;;;;;;;24.10;53.79;100695.84;4968785;28;20806;-71
2022/08/31 06:46:38;;;;;;;4.63;2.35;;;;;;;24.04;53.01;100695.13;4968665;28;20054;-72
2022/08/31 06:49:08;;;;;;;2.90;1.85;;;;;;;23.99;53.03;100691.75;4967145;28;20417;-72
2022/08/31 06:51:37;;;;;;;8.90;2.45;;;;;;;23.96;52.72;100696.22;4967500;28;20047;-72
2022/08/31 06:54:07;;;;;;;4.82;2.00;;;;;;;23.92;52.64;100703.41;4967391;28;20055;-72
2022/08/31 06:56:36;;;;;;;7.22;1.95;;;;;;;23.87;52.38;100697.38;4965137;28;20126;-73
2022/08/31 06:59:05;;;;;;;4.10;1.73;;;;;;;23.84;52.70;100700.06;4965236;28;20050;-73
2022/08/31 07:01:37;;;;;;;4.47;1.90;;;;;;;23.78;52.64;100692.31;4969745;28;21150;-72
2022/08/31 07:04:07;;;;;;;9.45;2.10;;;;;;;23.78;52.32;100702.91;4968832;28;20066;-72
2022/08/31 07:06:38;;;;;;;5.15;1.98;;;;;;;23.73;52.81;100694.16;4974157;28;20046;-72
2022/08/31 07:09:09;;;;;;;3.10;1.73;;;;;;;23.70;52.26;100695.13;4967399;28;20065;-72
2022/08/31 07:11:40;;;;;;;10.13;1.83;;;;;;;23.66;52.71;100703.16;4965697;28;20050;-72
2022/08/31 07:14:11;;;;;;;4.20;1.83;;;;;;;23.57;53.70;100688.41;4968447;28;20106;-72
2022/08/31 07:16:41;;;;;;;2.80;1.50;;;;;;;23.46;53.94;100691.34;4967107;28;20661;-72
2022/08/31 07:19:10;;;;;;;3.28;1.90;;;;;;;23.40;53.54;100691.47;4963558;28;20053;-72
2022/08/31 07:21:42;;;;;;;6.45;2.03;;;;;;;23.36;53.61;100695.09;4967245;28;20696;-72
2022/08/31 07:24:11;;;;;;;5.93;2.10;;;;;;;23.34;54.24;100686.34;4948727;28;20114;-71
2022/08/31 07:26:42;;;;;;;5.68;2.10;;;;;;;23.29;55.12;100685.59;4952060;28;20062;-72
2022/08/31 07:29:13;;;;;;;5.07;1.98;;;;;;;23.28;54.86;100689.16;4967546;28;20051;-72
2022/08/31 07:31:45;;;;;;;4.30;2.20;;;;;;;23.23;55.02;100683.09;4963776;28;20050;-72
2022/08/31 07:34:14;;;;;;;4.50;1.57;;;;;;;23.21;55.10;100691.94;4960851;28;20051;-71
2022/08/31 07:42:20;;;;;;;5.95;2.33;;;;;;;23.17;55.48;100684.97;4963833;28;20123;-73
2022/08/31 07:44:50;;;;;;;4.57;1.75;;;;;;;23.14;55.45;100687.69;4966239;28;20118;-73
2022/08/31 07:47:20;;;;;;;3.60;1.83;;;;;;;23.11;55.12;100687.78;4962882;28;20052;-72
2022/08/31 07:49:51;;;;;;;4.00;2.10;;;;;;;23.07;55.62;100685.25;4968383;28;20537;-73
2022/08/31 07:52:22;;;;;;;7.77;2.20;;;;;;;23.03;55.47;100676.53;4967231;28;20076;-72
2022/08/31 07:54:51;;;;;;;4.78;1.83;;;;;;;22.99;55.31;100685.41;4967187;28;20077;-71
2022/08/31 07:57:24;;;;;;;4.18;2.05;;;;;;;22.97;55.84;100687.19;4965529;28;20058;-72
2022/08/31 08:00:00;;;;;;;4.47;1.90;;;;;;;22.91;56.01;100687.34;4964511;28;20089;-72
2022/08/31 08:02:37;;;;;;;3.78;1.80;;;;;;;22.87;55.70;100680.38;4965831;28;20109;-72
2022/08/31 08:05:07;;;;;;;3.33;1.70;;;;;;;22.83;55.46;100668.16;4959923;28;20039;-73
2022/08/31 08:07:36;;;;;;;2.95;1.67;;;;;;;22.80;55.81;100671.75;4969284;28;20105;-73
2022/08/31 08:10:07;;;;;;;6.30;1.95;;;;;;;22.75;55.84;100668.34;4968480;28;20062;-73
2022/08/31 08:12:36;;;;;;;8.02;2.30;;;;;;;22.71;55.94;100664.91;4971766;28;20430;-73
2022/08/31 08:15:06;;;;;;;2.90;1.80;;;;;;;22.67;55.84;100668.50;4975120;28;20113;-73
2022/08/31 08:17:36;;;;;;;4.60;1.90;;;;;;;22.63;56.31;100672.13;4974566;28;20050;-72
2022/08/31 08:20:06;;;;;;;2.42;1.80;;;;;;;22.61;56.34;100673.03;4967747;28;20632;-73
2022/08/31 08:22:37;;;;;;;4.15;1.70;;;;;;;22.57;56.00;100672.25;4965853;28;20433;-73
2022/08/31 08:25:07;;;;;;;3.00;1.70;;;;;;;22.53;56.20;100671.44;4971197;28;20058;-73
2022/08/31 08:27:36;;;;;;;4.30;2.08;;;;;;;22.50;56.48;100675.91;4970863;28;20503;-73
2022/08/31 08:30:08;;;;;;;7.47;1.90;;;;;;;22.48;56.70;100675.09;4964006;28;20505;-72
2022/08/31 08:32:39;;;;;;;4.03;2.08;;;;;;;22.44;56.57;100676.03;4969402;28;20479;-73
2022/08/31 08:35:08;;;;;;;3.00;1.85;;;;;;;22.46;57.14;100684.78;4976254;28;20052;-73
2022/08/31 08:37:40;;;;;;;3.85;2.25;;;;;;;22.45;57.23;100673.38;4965534;28;20433;-72
2022/08/31 08:40:14;;;;;;;9.90;2.70;;;;;;;22.45;57.36;100667.22;4972575;28;20047;-73
2022/08/31 08:42:42;;;;;;;5.60;1.90;;;;;;;22.44;57.41;100676.03;4965944;28;20042;-72
2022/08/31 08:45:12;;;;;;;6.35;2.22;;;;;;;22.39;57.65;100668.22;4967986;28;20442;-72
2022/08/31 08:47:43;;;;;;;8.15;2.47;;;;;;;22.34;58.11;100676.22;4970997;28;20043;-72
2022/08/31 08:50:12;;;;;;;5.18;2.08;;;;;;;22.24;60.46;100676.44;4978612;28;20046;-72
2022/08/31 08:52:43;;;;;;;7.47;2.53;;;;;;;22.09;60.39;100674.94;4966959;28;20525;-72
2022/08/31 08:55:15;;;;;;;4.15;2.03;;;;;;;21.98;61.34;100672.50;4977613;28;20500;-72
2022/08/31 08:57:46;;;;;;;6.60;2.20;;;;;;;21.88;62.55;100665.69;4976943;28;20126;-71
2022/08/31 09:00:18;;;;;;;5.20;2.28;;;;;;;21.76;62.43;100672.03;4981390;28;20038;-72
2022/08/31 09:02:56;;;;;;;4.82;2.00;;;;;;;21.68;62.75;100671.31;4973069;28;20051;-71
2022/08/31 09:05:47;;;;;;;6.10;1.95;;;;;;;21.63;63.10;100663.50;4966897;28;20443;-71
2022/08/31 09:08:31;;;;;;;5.60;1.95;;;;;;;21.63;63.06;100660.00;4970703;28;20098;-71
2022/08/31 09:11:16;;;;;;;4.80;2.35;;;;;;;21.58;63.69;100667.09;4966637;28;20774;-71
2022/08/31 09:13:54;;;;;;;3.55;2.60;;;;;;;21.47;63.91;100673.41;4967455;28;20053;-71
2022/08/31 09:16:33;;;;;;;3.65;2.28;;;;;;;21.37;64.10;100674.41;4962340;28;20973;-72
2022/08/31 09:19:07;;;;;;;5.75;2.28;;;;;;;21.32;63.84;100671.00;4971642;28;20089;-72
2022/08/31 09:21:40;;;;;;;5.53;2.15;;;;;;;21.31;63.66;100669.28;4969302;28;20501;-72
2022/08/31 09:24:11;;;;;;;4.90;2.22;;;;;;;21.26;64.50;100668.50;4968025;28;20101;-71
2022/08/31 09:26:59;;;;;;;4.50;2.10;;;;;;;21.16;65.96;100664.25;4973418;28;20054;-71
2022/08/31 09:29:30;;;;;;;3.97;2.05;;;;;;;21.04;65.56;100660.03;4966344;28;20050;-73
2022/08/31 09:32:05;;;;;;;6.00;2.28;;;;;;;21.01;65.43;100655.72;4964484;28;20055;-73
2022/08/31 09:34:39;;;;;;;4.28;1.95;;;;;;;21.00;65.38;100661.84;4966274;28;20101;-71
2022/08/31 09:37:15;;;;;;;4.88;2.00;;;;;;;20.98;65.79;100655.75;4972208;28;20046;-73
2022/08/31 09:39:48;;;;;;;4.70;2.40;;;;;;;20.87;66.46;100655.06;4977960;28;20777;-71
2022/08/31 09:42:27;;;;;;;6.18;2.05;;;;;;;20.76;66.72;100659.59;4968479;28;20047;-72
2022/08/31 09:45:10;;;;;;;7.13;2.28;;;;;;;20.70;66.70;100666.66;4964631;28;20055;-72
2022/08/31 09:47:50;;;;;;;3.33;2.20;;;;;;;20.66;67.53;100653.56;4963253;28;20101;-71
2022/08/31 09:50:36;;;;;;;3.92;2.13;;;;;;;20.59;68.18;100660.69;4964772;28;20769;-71
2022/08/31 09:56:18;;;;;;;5.05;1.90;;;;;;;20.54;68.80;100649.31;4967345;28;20062;-72
2022/08/31 09:58:49;;;;;;;5.13;2.10;;;;;;;20.57;68.14;100659.84;4970204;28;20452;-72
2022/08/31 10:01:26;;;;;;;6.95;3.03;;;;;;;20.62;68.00;100663.28;4970137;28;20417;-72
2022/08/31 10:04:15;;;;;;;6.78;2.08;;;;;;;20.65;67.63;100665.84;4967135;28;20428;-73
2022/08/31 10:06:54;;;;;;;4.50;2.08;;;;;;;20.66;67.40;100664.09;4963723;28;20061;-73
2022/08/31 10:09:34;;;;;;;6.18;2.50;;;;;;;20.65;67.00;100665.84;4963333;28;20043;-72
2022/08/31 10:12:08;;;;;;;5.00;2.08;;;;;;;20.63;67.04;100667.63;4963839;28;20051;-73
2022/08/31 10:14:44;;;;;;;4.85;2.25;;;;;;;20.60;67.09;100662.41;4977440;28;20378;-73
2022/08/31 10:17:17;;;;;;;4.55;2.10;;;;;;;20.56;67.06;100668.59;4968742;28;20079;-73
2022/08/31 10:19:56;;;;;;;6.90;2.03;;;;;;;20.54;66.83;100665.09;4966900;28;20039;-73
2022/08/31 10:22:33;;;;;;;6.22;2.03;;;;;;;20.51;66.72;100660.75;4964305;28;20050;-72
2022/08/31 10:25:25;;;;;;;4.28;1.80;;;;;;;20.48;67.19;100654.66;4965618;28;20042;-73
2022/08/31 10:27:59;;;;;;;7.50;1.98;;;;;;;20.45;67.81;100659.94;4966762;28;20750;-71
2022/08/31 10:30:39;;;;;;;4.15;2.20;;;;;;;20.40;68.11;100659.16;4970635;28;20655;-71
2022/08/31 10:33:15;;;;;;;4.95;1.83;;;;;;;20.34;69.54;100651.31;4967646;28;20057;-72
2022/08/31 10:35:53;;;;;;;5.03;2.17;;;;;;;20.26;69.34;100654.91;4964256;28;20066;-73
2022/08/31 10:38:31;;;;;;;7.75;2.45;;;;;;;20.17;69.84;100655.03;4969511;28;20053;-71
2022/08/31 10:41:10;;;;;;;4.57;2.22;;;;;;;20.08;69.84;100650.75;4956627;28;20051;-72
2022/08/31 10:43:47;;;;;;;4.00;1.83;;;;;;;20.00;69.86;100657.88;4960866;28;20050;-72
2022/08/31 10:46:17;;;;;;;5.07;2.03;;;;;;;19.95;69.90;100649.16;4965789;28;20042;-73
2022/08/31 10:48:53;;;;;;;6.45;2.05;;;;;;;19.90;69.98;100639.59;4963800;28;20409;-72
2022/08/31 10:51:29;;;;;;;3.88;2.20;;;;;;;19.94;69.92;100654.44;4964111;28;20666;-72
2022/08/31 10:54:12;;;;;;;9.77;2.13;;;;;;;19.90;69.83;100650.94;4969076;28;20051;-72
2022/08/31 10:56:57;;;;;;;5.93;1.83;;;;;;;19.81;70.30;100661.53;4968417;28;20156;-72
2022/08/31 10:59:34;;;;;;;5.47;1.90;;;;;;;19.67;71.12;100665.13;4966522;28;20058;-72
2022/08/31 11:02:24;;;;;;;5.10;2.60;;;;;;;19.56;71.39;100661.78;4969580;28;20413;-72
2022/08/31 11:05:02;;;;;;;5.03;2.10;;;;;;;19.53;70.81;100661.78;4969639;28;20424;-72
2022/08/31 11:07:48;;;;;;;10.25;2.38;;;;;;;19.54;70.45;100660.00;4972298;28;20501;-73
2022/08/31 11:10:26;;;;;;;3.60;1.90;;;;;;;19.57;70.84;100665.25;4967298;28;20394;-73
2022/08/31 11:12:58;;;;;;;4.38;2.00;;;;;;;19.57;70.60;100657.38;4968867;28;20428;-73
2022/08/31 11:15:43;;;;;;;;;;;;;;;19.59;70.37;100666.13;4970627;28;20111;-73
2022/08/31 11:18:40;;;;;;;2.38;1.88;;;;;;;19.59;70.80;100669.59;4974699;28;19926;-73
2022/08/31 11:21:49;;;;;;;3.85;1.98;;;;;;;19.57;70.57;100676.63;4969471;28;20126;-74
2022/08/31 11:24:44;;;;;;;5.22;1.90;;;;;;;19.53;69.75;100671.41;4935574;28;20100;-73
2022/08/31 11:27:23;;;;;;;3.35;1.90;;;;;;;19.51;70.57;100676.66;4967160;28;20073;-73
2022/08/31 11:29:57;;;;;;;5.90;2.55;;;;;;;19.50;70.65;100677.56;4968035;28;20049;-73
2022/08/31 11:32:33;;;;;;;3.88;2.20;;;;;;;19.49;70.31;100674.94;4968212;28;20066;-73
2022/08/31 11:35:07;;;;;;;5.63;2.00;;;;;;;19.46;70.74;100676.69;4969792;28;20130;-74
2022/08/31 11:37:56;;;;;;;5.55;2.05;;;;;;;19.44;70.63;100680.22;4969875;28;20047;-74
2022/08/31 11:41:13;;;;;;;3.67;2.40;;;;;;;19.38;70.62;100683.78;4963305;28;20490;-73
2022/08/31 11:43:50;;;;;;;8.05;2.65;;;;;;;19.35;71.04;100686.41;4961105;28;20101;-73
2022/08/31 11:46:42;;;;;;;6.00;2.30;;;;;;;19.34;71.55;100678.56;4966972;28;20130;-73
2022/08/31 11:49:12;;;;;;;3.75;2.30;;;;;;;19.30;71.84;100675.09;4965694;28;20059;-73
2022/08/31 11:51:47;;;;;;;3.72;2.10;;;;;;;19.32;71.78;100678.56;4965339;28;20050;-72
2022/08/31 11:54:40;;;;;;;5.28;2.28;;;;;;;19.25;71.99;100676.88;4966529;28;20178;-72
2022/08/31 11:57:14;;;;;;;6.03;2.15;;;;;;;19.20;73.24;100665.56;4966975;28;20105;-71
2022/08/31 11:59:46;;;;;;;4.30;2.30;;;;;;;19.17;72.73;100662.94;4968050;28;20142;-73